createdAt,value
2023-03-10T21:36:07.193Z,45.84
2023-03-10T21:39:05.428Z,46.77
2023-03-10T21:40:07.416Z,46.69
2023-03-10T21:41:08.271Z,46.69
2023-03-10T21:42:09.110Z,46.80
2023-03-10T21:43:09.983Z,46.89
2023-03-10T21:44:10.908Z,46.89
2023-03-10T21:45:11.762Z,46.89
2023-03-10T21:46:12.668Z,46.89
2023-03-10T21:47:13.553Z,47.00
2023-03-10T21:48:14.382Z,46.89
2023-03-10T21:49:15.203Z,46.89
2023-03-10T21:50:16.043Z,46.89
2023-03-10T21:51:16.899Z,46.80
2023-03-10T21:52:17.731Z,46.69
2023-03-10T21:53:18.855Z,46.80
2023-03-10T21:54:19.165Z,46.80
2023-03-10T21:55:20.009Z,46.69
2023-03-10T21:56:20.853Z,46.69
2023-03-10T21:57:21.689Z,46.67
2023-03-10T21:58:22.528Z,46.59
2023-03-10T21:59:23.372Z,46.67
2023-03-10T22:00:24.230Z,46.57
2023-03-10T22:01:25.096Z,46.57
2023-03-10T22:02:26.023Z,46.57
2023-03-10T22:03:26.866Z,46.47
2023-03-10T22:04:27.698Z,46.47
2023-03-10T22:05:28.545Z,46.37
2023-03-10T22:06:29.428Z,46.37
2023-03-10T22:07:30.290Z,46.37
2023-03-10T22:08:31.128Z,46.17
2023-03-10T22:09:31.952Z,46.07
2023-03-10T22:10:32.788Z,46.07
2023-03-10T22:11:33.677Z,46.17
2023-03-10T22:12:34.550Z,46.17
2023-03-10T22:13:35.374Z,46.17
2023-03-10T22:14:36.184Z,46.17
2023-03-10T22:15:37.110Z,46.17
2023-03-10T22:16:38.130Z,46.17
2023-03-10T22:17:39.004Z,46.17
2023-03-10T22:18:39.821Z,46.17
2023-03-10T22:19:40.656Z,46.17
2023-03-10T22:20:41.469Z,46.17
2023-03-10T22:21:42.318Z,46.17
2023-03-10T22:22:43.156Z,46.17
2023-03-10T22:23:43.988Z,46.07
2023-03-10T22:24:44.831Z,46.07
2023-03-10T22:25:45.641Z,46.07
2023-03-10T22:26:46.478Z,46.07
2023-03-10T22:27:47.354Z,46.07
2023-03-10T22:28:48.164Z,46.07
2023-03-10T22:29:48.982Z,46.07
2023-03-10T22:30:49.822Z,45.97
2023-03-10T22:31:50.658Z,45.97
2023-03-10T22:32:51.577Z,45.97
2023-03-10T22:33:52.396Z,45.97
2023-03-10T22:34:53.209Z,45.97
2023-03-10T22:35:54.069Z,45.95
2023-03-10T22:36:55.003Z,45.87
2023-03-10T22:37:55.818Z,45.87
2023-03-10T22:38:56.639Z,45.84
2023-03-10T22:39:57.480Z,45.87
2023-03-10T22:40:58.306Z,45.87
2023-03-10T22:41:59.144Z,45.87
2023-03-10T22:43:00.007Z,45.84
2023-03-10T22:44:00.840Z,45.87
2023-03-10T22:45:01.652Z,45.87
2023-03-10T22:46:02.494Z,45.87
2023-03-10T22:47:03.425Z,45.84
2023-03-10T22:48:04.288Z,45.87
2023-03-10T22:49:05.186Z,45.84
2023-03-10T22:50:06.032Z,45.84
2023-03-10T22:51:07.068Z,45.75
2023-03-10T22:52:07.903Z,45.75
2023-03-10T22:53:08.734Z,45.75
2023-03-10T22:54:09.574Z,45.65
2023-03-10T22:55:10.394Z,45.75
2023-03-10T22:56:11.241Z,45.65
2023-03-10T22:57:12.075Z,45.65
2023-03-10T22:58:12.991Z,45.65
2023-03-10T22:59:13.827Z,45.75
2023-03-10T23:00:14.670Z,45.75
2023-03-10T23:01:15.494Z,45.45
2023-03-10T23:02:16.334Z,45.65
2023-03-10T23:03:17.281Z,45.54
2023-03-10T23:04:18.171Z,45.65
2023-03-10T23:05:19.020Z,45.65
2023-03-10T23:06:19.867Z,45.65
2023-03-10T23:07:20.720Z,45.65
2023-03-10T23:08:21.564Z,45.75
2023-03-10T23:09:22.380Z,45.75
2023-03-10T23:10:23.265Z,45.65
2023-03-10T23:11:24.124Z,45.65
2023-03-10T23:12:24.956Z,45.65
2023-03-10T23:13:25.798Z,45.65
2023-03-10T23:14:26.635Z,45.54
2023-03-10T23:15:27.477Z,45.65
2023-03-10T23:16:28.397Z,45.54
2023-03-10T23:17:29.241Z,45.45
2023-03-10T23:18:30.084Z,45.45
2023-03-10T23:19:30.953Z,45.45
2023-03-10T23:20:31.766Z,45.45
2023-03-10T23:21:32.587Z,45.45
2023-03-10T23:22:33.455Z,45.45
2023-03-10T23:23:34.291Z,45.45
2023-03-10T23:24:35.147Z,45.34
2023-03-10T23:25:35.979Z,45.34
2023-03-10T23:26:36.904Z,45.34
2023-03-10T23:27:37.755Z,45.34
2023-03-10T23:28:38.588Z,45.34
2023-03-10T23:29:39.395Z,45.34
2023-03-10T23:30:40.247Z,45.25
2023-03-10T23:31:41.140Z,45.34
2023-03-10T23:32:42.064Z,45.25
2023-03-10T23:33:42.891Z,45.25
2023-03-10T23:34:43.726Z,45.25
2023-03-10T23:35:44.677Z,45.25
2023-03-10T23:36:45.498Z,45.25
2023-03-10T23:37:46.347Z,45.25
2023-03-10T23:38:47.170Z,45.34
2023-03-10T23:39:48.005Z,45.34
2023-03-10T23:40:48.853Z,45.34
2023-03-10T23:41:49.685Z,45.34
2023-03-10T23:42:50.530Z,45.45
2023-03-10T23:43:51.380Z,45.45
2023-03-10T23:44:52.222Z,45.45
2023-03-10T23:45:53.050Z,45.45
2023-03-10T23:46:53.912Z,45.45
2023-03-10T23:47:54.736Z,45.45
2023-03-10T23:48:55.567Z,45.45
2023-03-10T23:49:56.371Z,45.45
2023-03-10T23:50:57.199Z,45.54
2023-03-10T23:51:58.027Z,45.54
2023-03-10T23:52:58.864Z,45.54
2023-03-10T23:53:59.701Z,45.45
2023-03-10T23:55:00.541Z,45.54
2023-03-10T23:56:01.370Z,45.45
2023-03-10T23:57:02.195Z,45.45
2023-03-10T23:58:03.026Z,45.45
2023-03-10T23:59:03.853Z,45.54
